createdAt,value
2017-11-12T00:01:30.008Z,23.97
2017-11-12T00:03:56.255Z,18.43
2017-11-12T00:06:23.235Z,18.77
2017-11-12T00:08:49.464Z,21.00
2017-11-12T00:11:15.734Z,17.60
2017-11-12T00:13:41.934Z,18.00
2017-11-12T00:16:08.420Z,18.43
2017-11-12T00:18:34.675Z,20.80
2017-11-12T00:21:00.891Z,19.73
2017-11-12T00:23:27.132Z,27.77
2017-11-12T00:25:53.344Z,20.53
2017-11-12T00:28:19.596Z,24.60
2017-11-12T00:30:45.828Z,19.33
2017-11-12T00:33:12.217Z,19.00
2017-11-12T00:35:38.467Z,22.97
2017-11-12T00:38:04.717Z,25.13
2017-11-12T00:40:30.993Z,16.33
2017-11-12T00:42:58.018Z,26.10
2017-11-12T00:45:24.264Z,20.50
2017-11-12T00:47:51.248Z,25.60
2017-11-12T00:50:17.518Z,19.27
2017-11-12T00:52:43.759Z,20.40
2017-11-12T00:55:10.043Z,21.70
2017-11-12T00:57:36.272Z,19.13
2017-11-12T01:00:03.298Z,16.57
2017-11-12T01:02:29.567Z,23.07
2017-11-12T01:04:55.787Z,15.87
2017-11-12T01:07:22.037Z,17.10
2017-11-12T01:09:49.068Z,20.27
2017-11-12T01:12:15.297Z,19.23
2017-11-12T01:14:41.507Z,17.77
2017-11-12T01:17:07.743Z,20.20
2017-11-12T01:19:33.962Z,21.20
2017-11-12T01:22:00.148Z,18.90
2017-11-12T01:24:27.110Z,14.13
2017-11-12T01:26:53.322Z,18.97
2017-11-12T01:29:19.566Z,15.67
2017-11-12T01:31:45.842Z,18.27
2017-11-12T01:34:12.099Z,17.63
2017-11-12T01:36:39.118Z,21.03
2017-11-12T01:39:06.117Z,19.63
2017-11-12T01:41:32.375Z,13.63
2017-11-12T01:43:58.646Z,15.00
2017-11-12T01:46:25.629Z,21.97
2017-11-12T01:48:51.943Z,22.20
2017-11-12T01:51:18.187Z,16.83
2017-11-12T01:53:44.536Z,16.83
2017-11-12T01:56:11.584Z,17.93
2017-11-12T01:58:37.867Z,20.57
2017-11-12T02:01:04.141Z,16.57
2017-11-12T02:03:31.274Z,16.30
2017-11-12T02:05:57.566Z,16.23
2017-11-12T02:08:23.867Z,15.73
2017-11-12T02:10:50.172Z,18.20
2017-11-12T02:13:16.432Z,17.70
2017-11-12T02:15:42.639Z,16.47
2017-11-12T02:18:08.928Z,19.40
2017-11-12T02:20:35.174Z,26.77
2017-11-12T02:23:01.464Z,19.70
2017-11-12T02:25:28.557Z,17.17
2017-11-12T02:27:54.853Z,17.77
2017-11-12T02:30:21.108Z,15.60
2017-11-12T02:32:47.457Z,21.00
2017-11-12T02:35:13.741Z,19.70
2017-11-12T02:37:39.972Z,14.60
2017-11-12T02:40:06.331Z,30.13
2017-11-12T02:42:32.681Z,24.37
2017-11-12T02:44:59.104Z,22.53
2017-11-12T02:47:26.156Z,24.90
2017-11-12T02:49:52.500Z,19.87
2017-11-12T02:52:18.809Z,20.67
2017-11-12T02:54:45.069Z,21.20
2017-11-12T02:57:12.113Z,21.77
2017-11-12T02:59:38.389Z,18.07
2017-11-12T03:02:04.633Z,27.80
2017-11-12T03:04:30.916Z,20.47
2017-11-12T03:07:05.038Z,18.03
2017-11-12T03:09:32.059Z,24.00
2017-11-12T03:11:59.843Z,19.47
2017-11-12T03:14:27.860Z,20.00
2017-11-12T03:16:54.503Z,20.63
2017-11-12T03:19:21.027Z,23.50
2017-11-12T03:21:49.854Z,21.80
2017-11-12T03:24:18.566Z,24.27
2017-11-12T03:26:45.088Z,24.10
2017-11-12T03:29:12.558Z,24.80
2017-11-12T03:31:38.860Z,19.80
2017-11-12T03:34:05.878Z,23.63
2017-11-12T03:36:33.289Z,25.73
2017-11-12T03:39:01.198Z,21.87
2017-11-12T03:41:28.579Z,20.47
2017-11-12T03:43:55.115Z,24.83
2017-11-12T03:46:21.357Z,23.10
2017-11-12T03:48:50.262Z,21.80
2017-11-12T03:51:17.380Z,22.90
2017-11-12T03:53:43.931Z,25.77
2017-11-12T03:56:11.054Z,20.47
2017-11-12T03:58:37.344Z,22.40
2017-11-12T04:01:03.588Z,28.70
2017-11-12T04:03:29.791Z,28.17
2017-11-12T04:05:56.794Z,30.90
2017-11-12T04:08:23.050Z,27.10
2017-11-12T04:10:50.049Z,28.90
2017-11-12T04:13:16.327Z,32.03
2017-11-12T04:15:43.327Z,31.33
2017-11-12T04:18:09.584Z,24.30
2017-11-12T04:20:36.019Z,28.43
2017-11-12T04:23:02.381Z,28.00
2017-11-12T04:25:29.347Z,22.90
2017-11-12T04:27:55.624Z,26.33
2017-11-12T04:30:21.902Z,25.27
2017-11-12T04:32:48.154Z,29.27
2017-11-12T04:35:14.374Z,26.77
2017-11-12T04:37:40.595Z,28.77
2017-11-12T04:40:06.954Z,29.93
2017-11-12T04:42:33.151Z,27.63
2017-11-12T04:44:59.358Z,28.40
2017-11-12T04:47:25.567Z,26.50
2017-11-12T04:49:52.529Z,35.17
2017-11-12T04:52:18.763Z,32.43
2017-11-12T04:54:45.003Z,33.97
2017-11-12T04:57:11.223Z,32.23
2017-11-12T04:59:37.436Z,35.70
2017-11-12T05:02:03.700Z,45.03
2017-11-12T05:04:29.923Z,44.57
2017-11-12T05:06:56.188Z,34.67
2017-11-12T05:09:22.445Z,38.27
2017-11-12T05:11:48.687Z,34.07
2017-11-12T05:14:14.889Z,36.80
2017-11-12T05:16:41.858Z,28.77
2017-11-12T05:19:08.063Z,33.50
2017-11-12T05:21:35.052Z,39.73
2017-11-12T05:24:02.096Z,36.03
2017-11-12T05:26:28.407Z,31.63
2017-11-12T05:28:54.623Z,34.27
2017-11-12T05:31:20.880Z,42.90
2017-11-12T05:33:47.087Z,32.63
2017-11-12T05:36:13.336Z,35.53
2017-11-12T05:38:39.552Z,46.60
2017-11-12T05:41:05.784Z,39.07
2017-11-12T05:43:31.984Z,36.83
2017-11-12T05:45:58.994Z,35.73
2017-11-12T05:48:25.226Z,29.37
2017-11-12T05:50:51.456Z,35.13
2017-11-12T05:53:18.425Z,39.50
2017-11-12T05:55:45.432Z,28.27
2017-11-12T05:58:11.681Z,35.80
2017-11-12T06:00:38.710Z,35.47
2017-11-12T06:03:04.967Z,30.43
2017-11-12T06:05:31.925Z,37.70
2017-11-12T06:07:58.295Z,36.23
2017-11-12T06:10:24.575Z,38.67
2017-11-12T06:12:51.551Z,33.03
2017-11-12T06:15:17.820Z,31.80
2017-11-12T06:17:45.480Z,32.73
2017-11-12T06:20:12.730Z,32.70
2017-11-12T06:22:39.709Z,32.70
2017-11-12T06:25:05.960Z,31.43
2017-11-12T06:27:32.237Z,34.50
2017-11-12T06:29:58.559Z,38.53
2017-11-12T06:32:25.909Z,42.67
2017-11-12T06:34:52.147Z,31.53
2017-11-12T06:37:18.452Z,35.40
2017-11-12T06:39:44.701Z,30.47
2017-11-12T06:42:10.955Z,32.00
2017-11-12T06:44:37.895Z,35.47
2017-11-12T06:47:04.129Z,29.27
2017-11-12T06:49:31.149Z,29.30
2017-11-12T06:51:57.412Z,42.40
2017-11-12T06:54:24.365Z,35.67
2017-11-12T06:56:51.349Z,31.63
2017-11-12T06:59:17.807Z,32.13
2017-11-12T07:01:44.649Z,28.47
2017-11-12T07:04:10.884Z,32.47
2017-11-12T07:06:37.124Z,31.43
2017-11-12T07:09:04.107Z,32.80
2017-11-12T07:11:33.194Z,37.37
2017-11-12T07:14:00.347Z,37.97
2017-11-12T07:16:26.572Z,29.33
2017-11-12T07:18:52.928Z,35.70
2017-11-12T07:21:20.610Z,31.93
2017-11-12T07:23:47.541Z,26.07
2017-11-12T07:26:13.757Z,28.10
2017-11-12T07:28:40.526Z,25.90
2017-11-12T07:31:07.845Z,25.87
2017-11-12T07:33:34.680Z,31.90
2017-11-12T07:36:00.890Z,31.77
2017-11-12T07:38:27.134Z,24.33
2017-11-12T07:40:54.146Z,20.77
2017-11-12T07:43:21.804Z,22.13
2017-11-12T07:45:48.250Z,24.67
2017-11-12T07:48:14.539Z,33.10
2017-11-12T07:50:42.348Z,20.27
2017-11-12T07:53:09.421Z,21.90
2017-11-12T07:55:35.641Z,20.53
2017-11-12T07:58:01.870Z,25.80
2017-11-12T08:00:28.193Z,26.50
2017-11-12T08:02:54.483Z,23.23
2017-11-12T08:05:20.867Z,30.00
2017-11-12T08:07:47.079Z,22.33
2017-11-12T08:10:13.400Z,28.83
2017-11-12T08:12:39.683Z,23.77
2017-11-12T08:15:06.029Z,20.83
2017-11-12T08:17:33.017Z,25.97
2017-11-12T08:19:59.530Z,19.37
2017-11-12T08:22:26.793Z,22.57
2017-11-12T08:24:53.040Z,19.70
2017-11-12T08:27:19.261Z,21.17
2017-11-12T08:29:45.671Z,16.50
2017-11-12T08:32:11.958Z,15.93
2017-11-12T08:34:38.368Z,21.83
2017-11-12T08:37:04.625Z,15.60
2017-11-12T08:39:32.487Z,17.07
2017-11-12T08:41:58.772Z,15.07
2017-11-12T08:44:25.037Z,16.77
2017-11-12T08:46:51.332Z,21.07
2017-11-12T08:49:17.757Z,14.73
2017-11-12T08:51:44.092Z,23.00
2017-11-12T08:54:10.429Z,17.43
2017-11-12T08:56:36.711Z,15.27
2017-11-12T08:59:02.946Z,20.57
2017-11-12T09:01:29.280Z,16.30
2017-11-12T09:03:55.616Z,17.93
2017-11-12T09:06:22.591Z,18.30
2017-11-12T09:08:48.877Z,20.17
2017-11-12T09:11:15.151Z,17.07
2017-11-12T09:13:41.458Z,17.30
2017-11-12T09:16:07.736Z,19.13
2017-11-12T09:18:33.955Z,20.93
2017-11-12T09:21:00.279Z,16.87
2017-11-12T09:23:26.553Z,15.03
2017-11-12T09:25:52.942Z,17.43
2017-11-12T09:28:19.475Z,19.37
2017-11-12T09:30:45.756Z,12.60
2017-11-12T09:33:12.760Z,17.50
2017-11-12T09:35:39.566Z,15.83
2017-11-12T09:38:05.907Z,15.17
2017-11-12T09:40:32.231Z,15.87
2017-11-12T09:42:58.497Z,25.37
2017-11-12T09:45:24.791Z,9.37
2017-11-12T09:47:51.040Z,14.80
2017-11-12T09:50:17.267Z,12.43
2017-11-12T09:52:45.904Z,14.87
2017-11-12T09:55:13.012Z,16.57
2017-11-12T09:57:40.010Z,18.13
2017-11-12T10:00:07.065Z,17.00
2017-11-12T10:02:34.468Z,19.10
2017-11-12T10:05:01.492Z,18.20
2017-11-12T10:07:27.761Z,19.17
2017-11-12T10:09:54.831Z,21.43
2017-11-12T10:12:21.056Z,17.17
2017-11-12T10:14:47.307Z,17.33
2017-11-12T10:17:13.516Z,14.53
2017-11-12T10:19:40.598Z,20.73
2017-11-12T10:22:06.871Z,11.33
2017-11-12T10:24:33.890Z,15.23
2017-11-12T10:27:00.144Z,12.10
2017-11-12T10:29:27.153Z,18.40
2017-11-12T10:31:53.393Z,13.57
2017-11-12T10:34:19.600Z,17.83
2017-11-12T10:36:45.936Z,14.73
2017-11-12T10:39:12.216Z,14.70
2017-11-12T10:41:38.528Z,10.60
2017-11-12T10:44:06.525Z,25.50
2017-11-12T10:46:33.522Z,16.83
2017-11-12T10:48:59.736Z,17.90
2017-11-12T10:51:26.047Z,13.13
2017-11-12T10:53:52.261Z,16.37
2017-11-12T10:56:18.542Z,25.20
2017-11-12T10:58:44.744Z,15.47
2017-11-12T11:01:11.087Z,15.07
2017-11-12T11:03:37.423Z,15.43
2017-11-12T11:06:03.713Z,13.37
2017-11-12T11:08:30.001Z,9.90
2017-11-12T11:10:57.153Z,21.07
2017-11-12T11:13:24.677Z,15.53
2017-11-12T11:15:52.644Z,9.87
2017-11-12T11:18:18.874Z,14.40
2017-11-12T11:20:45.122Z,17.33
2017-11-12T11:23:11.532Z,9.70
2017-11-12T11:25:37.801Z,12.03
2017-11-12T11:28:04.861Z,11.10
2017-11-12T11:30:31.895Z,12.90
2017-11-12T11:32:58.832Z,12.77
2017-11-12T11:35:25.272Z,17.23
2017-11-12T11:37:51.647Z,11.10
2017-11-12T11:40:17.915Z,11.90
2017-11-12T11:42:44.224Z,14.60
2017-11-12T11:45:10.504Z,12.50
2017-11-12T11:47:37.954Z,20.13
2017-11-12T11:50:05.087Z,18.07
2017-11-12T11:52:31.330Z,16.03
2017-11-12T11:54:58.303Z,19.00
2017-11-12T11:57:24.655Z,15.40
2017-11-12T11:59:51.051Z,16.73
2017-11-12T12:02:17.368Z,13.50
2017-11-12T12:04:44.350Z,20.93
2017-11-12T12:07:10.953Z,16.63
2017-11-12T12:09:37.989Z,13.70
2017-11-12T12:12:04.247Z,12.40
2017-11-12T12:14:30.463Z,15.80
2017-11-12T12:16:57.816Z,12.70
2017-11-12T12:19:24.284Z,9.03
2017-11-12T12:21:50.547Z,9.50
2017-11-12T12:24:16.918Z,15.13
2017-11-12T12:26:44.876Z,8.60
2017-11-12T12:29:13.150Z,15.13
2017-11-12T12:31:40.323Z,8.13
2017-11-12T12:34:07.189Z,10.70
2017-11-12T12:36:34.536Z,27.43
2017-11-12T12:39:01.744Z,6.97
2017-11-12T12:41:29.004Z,7.80
2017-11-12T12:43:56.607Z,6.60
2017-11-12T12:46:23.857Z,8.57
2017-11-12T12:48:50.254Z,9.60
2017-11-12T12:51:17.016Z,15.30
2017-11-12T12:53:44.569Z,9.57
2017-11-12T12:56:10.946Z,18.90
2017-11-12T12:58:37.997Z,10.33
2017-11-12T13:01:04.607Z,5.07
2017-11-12T13:03:31.501Z,15.67
2017-11-12T13:05:58.354Z,11.20
2017-11-12T13:08:24.720Z,17.03
2017-11-12T13:10:52.837Z,8.23
2017-11-12T13:13:25.435Z,13.63
2017-11-12T13:15:51.749Z,11.50
2017-11-12T13:18:18.926Z,10.90
2017-11-12T13:20:49.515Z,9.10
2017-11-12T13:23:18.669Z,15.50
2017-11-12T13:25:45.244Z,12.40
2017-11-12T13:28:12.391Z,7.10
2017-11-12T13:30:43.274Z,6.20
2017-11-12T13:33:11.432Z,9.30
2017-11-12T13:35:37.761Z,9.00
2017-11-12T13:38:04.118Z,10.97
2017-11-12T13:40:30.355Z,21.37
2017-11-12T13:42:57.901Z,7.10
2017-11-12T13:45:24.215Z,7.73
2017-11-12T13:47:50.518Z,10.17
2017-11-12T13:50:17.485Z,13.17
2017-11-12T13:52:44.328Z,16.87
2017-11-12T13:55:11.010Z,11.23
2017-11-12T13:57:37.269Z,18.80
2017-11-12T14:00:03.549Z,9.17
2017-11-12T14:02:29.871Z,11.27
2017-11-12T14:04:56.100Z,15.27
2017-11-12T14:07:22.303Z,14.40
2017-11-12T14:09:48.600Z,15.80
2017-11-12T14:12:14.833Z,11.47
2017-11-12T14:14:41.844Z,16.47
2017-11-12T14:17:08.071Z,11.63
2017-11-12T14:19:34.764Z,13.33
2017-11-12T14:22:01.543Z,15.40
2017-11-12T14:24:28.598Z,13.90
2017-11-12T14:26:54.805Z,14.23
2017-11-12T14:29:21.078Z,12.37
2017-11-12T14:31:49.053Z,15.63
2017-11-12T14:34:16.061Z,18.43
2017-11-12T14:36:42.301Z,11.03
2017-11-12T14:39:08.547Z,11.00
2017-11-12T14:41:34.759Z,12.27
2017-11-12T14:44:01.004Z,14.10
2017-11-12T14:46:27.228Z,14.30
2017-11-12T14:48:53.531Z,13.07
2017-11-12T14:51:19.874Z,12.73
2017-11-12T14:53:46.127Z,13.30
2017-11-12T14:56:12.388Z,21.47
2017-11-12T14:58:38.639Z,18.10
2017-11-12T15:01:04.852Z,17.43
2017-11-12T15:03:31.141Z,9.03
2017-11-12T15:05:57.433Z,9.90
2017-11-12T15:08:23.791Z,14.00
2017-11-12T15:10:50.977Z,17.40
2017-11-12T15:13:17.316Z,12.73
2017-11-12T15:15:43.579Z,11.33
2017-11-12T15:18:09.941Z,15.73
2017-11-12T15:20:37.056Z,10.80
2017-11-12T15:23:03.806Z,14.80
2017-11-12T15:25:31.234Z,12.13
2017-11-12T15:27:57.516Z,12.90
2017-11-12T15:30:24.628Z,24.23
2017-11-12T15:32:51.171Z,21.93
2017-11-12T15:35:17.604Z,12.17
2017-11-12T15:37:43.884Z,12.30
2017-11-12T15:40:10.198Z,17.93
2017-11-12T15:42:37.169Z,13.73
2017-11-12T15:45:03.403Z,20.97
2017-11-12T15:47:29.646Z,12.70
2017-11-12T15:49:56.001Z,12.93
2017-11-12T15:52:22.434Z,13.30
2017-11-12T15:54:48.756Z,24.93
2017-11-12T15:57:14.967Z,16.07
2017-11-12T15:59:41.262Z,19.10
2017-11-12T16:02:08.299Z,15.53
2017-11-12T16:04:35.310Z,17.93
2017-11-12T16:07:01.598Z,9.80
2017-11-12T16:09:27.943Z,13.30
2017-11-12T16:11:55.049Z,13.33
2017-11-12T16:14:21.410Z,16.47
2017-11-12T16:16:47.661Z,16.27
2017-11-12T16:19:13.895Z,14.90
2017-11-12T16:21:40.144Z,14.43
2017-11-12T16:24:06.352Z,23.93
2017-11-12T16:26:32.732Z,15.23
2017-11-12T16:28:59.750Z,14.27
2017-11-12T16:31:26.054Z,11.02
2017-11-12T16:33:52.415Z,10.90
2017-11-12T16:36:18.665Z,10.33
2017-11-12T16:38:45.639Z,17.47
2017-11-12T16:41:11.879Z,10.50
2017-11-12T16:43:38.926Z,15.77
2017-11-12T16:46:05.189Z,13.03
2017-11-12T16:48:31.607Z,17.00
2017-11-12T16:50:58.192Z,16.47
2017-11-12T16:53:25.260Z,10.90
2017-11-12T16:55:51.487Z,19.97
2017-11-12T16:58:17.717Z,22.43
2017-11-12T17:00:44.008Z,16.33
2017-11-12T17:03:10.955Z,18.80
2017-11-12T17:05:38.004Z,12.73
2017-11-12T17:08:05.029Z,21.00
2017-11-12T17:10:31.385Z,16.27
2017-11-12T17:12:58.513Z,13.20
2017-11-12T17:15:25.607Z,14.43
2017-11-12T17:17:51.879Z,14.20
2017-11-12T17:20:18.115Z,17.60
2017-11-12T17:22:44.697Z,20.83
2017-11-12T17:25:10.957Z,11.47
2017-11-12T17:27:37.263Z,14.97
2017-11-12T17:30:03.508Z,15.10
2017-11-12T17:32:29.765Z,23.00
2017-11-12T17:34:56.338Z,12.23
2017-11-12T17:37:22.788Z,15.03
2017-11-12T17:39:49.205Z,12.00
2017-11-12T17:42:15.597Z,19.90
2017-11-12T17:44:41.863Z,14.50
2017-11-12T17:47:08.120Z,17.27
2017-11-12T17:49:34.636Z,14.20
2017-11-12T17:52:01.017Z,14.60
2017-11-12T17:54:27.230Z,19.13
2017-11-12T17:56:57.267Z,19.10
2017-11-12T17:59:23.613Z,16.93
2017-11-12T18:01:52.032Z,15.20
2017-11-12T18:04:18.364Z,14.90
2017-11-12T18:06:46.223Z,19.10
2017-11-12T18:09:12.650Z,15.70
2017-11-12T18:11:38.993Z,13.90
2017-11-12T18:14:05.356Z,19.30
2017-11-12T18:16:31.798Z,22.57
2017-11-12T18:18:58.077Z,19.20
2017-11-12T18:21:24.375Z,19.10
2017-11-12T18:23:50.789Z,26.63
2017-11-12T18:26:17.061Z,29.10
2017-11-12T18:28:43.342Z,21.23
2017-11-12T18:31:09.639Z,29.23
2017-11-12T18:33:35.924Z,36.17
2017-11-12T18:36:04.237Z,55.70
2017-11-12T18:38:31.557Z,38.10
2017-11-12T18:40:58.539Z,30.93
2017-11-12T18:43:24.990Z,36.17
2017-11-12T18:45:51.227Z,26.27
2017-11-12T18:48:17.557Z,24.27
2017-11-12T18:50:47.077Z,24.17
2017-11-12T18:53:13.460Z,25.13
2017-11-12T18:55:40.011Z,31.63
2017-11-12T18:58:06.829Z,33.90
2017-11-12T19:00:39.425Z,30.80
2017-11-12T19:06:09.908Z,41.37
2017-11-12T19:08:38.009Z,36.80
2017-11-12T19:11:06.733Z,32.10
2017-11-12T19:13:33.035Z,30.50
2017-11-12T19:15:59.504Z,32.43
2017-11-12T19:18:28.050Z,34.60
2017-11-12T19:20:57.624Z,39.77
2017-11-12T19:23:25.538Z,31.27
2017-11-12T19:25:53.858Z,40.00
2017-11-12T19:28:21.000Z,33.20
2017-11-12T19:30:48.051Z,37.90
2017-11-12T19:33:14.312Z,40.20
2017-11-12T19:35:40.559Z,46.57
2017-11-12T19:38:06.806Z,40.33
2017-11-12T19:40:33.119Z,35.27
2017-11-12T19:42:59.349Z,43.57
2017-11-12T19:45:25.640Z,36.00
2017-11-12T19:47:52.638Z,34.20
2017-11-12T19:50:18.845Z,47.50
2017-11-12T19:52:45.244Z,41.77
2017-11-12T19:55:12.305Z,44.03
2017-11-12T19:57:39.312Z,38.50
2017-11-12T20:00:05.696Z,38.63
2017-11-12T20:02:32.229Z,42.63
2017-11-12T20:04:58.550Z,41.53
2017-11-12T20:07:25.507Z,48.13
2017-11-12T20:09:51.822Z,52.27
2017-11-12T20:12:18.991Z,60.57
2017-11-12T20:14:45.265Z,62.87
2017-11-12T20:17:11.488Z,62.33
2017-11-12T20:19:37.725Z,53.13
2017-11-12T20:22:04.050Z,53.53
2017-11-12T20:24:30.311Z,49.90
2017-11-12T20:26:57.420Z,46.10
2017-11-12T20:29:23.735Z,57.17
2017-11-12T20:31:50.225Z,55.00
2017-11-12T20:34:16.509Z,49.33
2017-11-12T20:36:47.803Z,53.40
2017-11-12T20:39:14.344Z,52.77
2017-11-12T20:41:40.609Z,46.00
2017-11-12T20:44:06.855Z,44.80
2017-11-12T20:46:33.149Z,44.60
2017-11-12T20:48:59.436Z,46.47
2017-11-12T20:51:27.181Z,42.00
2017-11-12T20:53:53.445Z,44.70
2017-11-12T20:56:20.411Z,47.20
2017-11-12T20:58:46.726Z,41.23
2017-11-12T21:01:13.043Z,41.30
2017-11-12T21:03:41.482Z,49.10
2017-11-12T21:06:07.808Z,42.93
2017-11-12T21:08:34.111Z,42.97
2017-11-12T21:11:00.398Z,41.00
2017-11-12T21:13:26.704Z,37.47
2017-11-12T21:15:52.996Z,38.80
2017-11-12T21:18:19.264Z,39.80
2017-11-12T21:20:48.444Z,41.30
2017-11-12T21:23:14.715Z,39.40
2017-11-12T21:25:41.960Z,39.90
2017-11-12T21:28:11.220Z,41.57
2017-11-12T21:30:39.175Z,37.07
2017-11-12T21:33:11.541Z,45.40
2017-11-12T21:35:38.857Z,36.13
2017-11-12T21:38:05.653Z,51.27
2017-11-12T21:40:32.224Z,40.40
2017-11-12T21:42:59.571Z,36.70
2017-11-12T21:45:26.947Z,38.53
2017-11-12T21:47:57.193Z,36.47
2017-11-12T21:50:24.271Z,36.07
2017-11-12T21:52:51.205Z,36.90
2017-11-12T21:55:21.255Z,39.13
2017-11-12T21:57:50.381Z,33.13
2017-11-12T22:00:18.721Z,38.90
2017-11-12T22:02:45.157Z,34.97
2017-11-12T22:05:12.445Z,35.00
2017-11-12T22:07:38.811Z,41.77
2017-11-12T22:10:05.065Z,40.50
2017-11-12T22:12:31.332Z,35.63
2017-11-12T22:14:57.584Z,41.37
2017-11-12T22:17:23.903Z,32.97
2017-11-12T22:19:50.188Z,36.47
2017-11-12T22:22:16.467Z,39.53
2017-11-12T22:24:42.829Z,31.87
2017-11-12T22:27:09.091Z,37.97
2017-11-12T22:29:39.214Z,39.57
2017-11-12T22:32:05.572Z,40.53
2017-11-12T22:34:31.844Z,37.13
2017-11-12T22:36:59.199Z,42.90
2017-11-12T22:39:25.453Z,37.83
2017-11-12T22:41:51.880Z,43.63
2017-11-12T22:44:36.670Z,35.63
2017-11-12T22:47:04.842Z,41.60
2017-11-12T22:49:31.299Z,30.47
2017-11-12T22:54:47.330Z,40.17
2017-11-12T22:57:13.573Z,35.80
2017-11-12T22:59:39.952Z,30.00
2017-11-12T23:02:06.207Z,33.57
2017-11-12T23:04:35.180Z,39.03
2017-11-12T23:07:01.905Z,34.23
2017-11-12T23:09:28.801Z,40.27
2017-11-12T23:11:55.284Z,26.63
2017-11-12T23:14:21.697Z,36.63
2017-11-12T23:16:47.967Z,27.37
2017-11-12T23:19:14.208Z,33.47
2017-11-12T23:21:40.474Z,35.07
2017-11-12T23:24:07.150Z,34.90
2017-11-12T23:26:33.537Z,42.60
2017-11-12T23:29:01.244Z,32.23
2017-11-12T23:31:27.621Z,32.30
2017-11-12T23:33:53.870Z,48.20
2017-11-12T23:36:20.836Z,36.37
2017-11-12T23:38:47.042Z,35.13
2017-11-12T23:41:13.293Z,32.50
2017-11-12T23:43:39.632Z,35.17
2017-11-12T23:46:06.708Z,31.70
2017-11-12T23:48:33.015Z,29.57
2017-11-12T23:50:59.336Z,29.30
2017-11-12T23:53:25.553Z,35.43
2017-11-12T23:55:51.834Z,28.60
2017-11-12T23:58:18.032Z,39.67
